Natures Way Challenger — WDF7294 — position and weather

sailwx.info

Track history (hours):
 
Tides and Currents Weather Stations Pressure Air Temp Water Temp Dewpoint Dewpoint Depression Visibility Wind Speed Wind Dir Waves Ship Positions

Natures Way Challenger

Owner: Natures Way Marine, LLC, Theodore, AL. More information available from US FCC via Universal Licensing System and Coast Guard Vessel Documentation Center.

Last reported at 2015-Apr-16 19:04 UTC. Time now 2015-Apr-18 16:39 UTC.
Position N 29°32' W 090°51'.

Length 14 m.

Type: Towing. MMSI: 367483050.

Date/timePositionNaut miles runAvg speedWind from/ knotsBaromVisibWave heightAir tempDewpointWater temp
2015-Apr-16 19:04N 29°32' W 090°51'3 5.8
2015-Apr-16 18:32N 29°32' W 090°47'4 4.6
2015-Apr-16 17:33N 29°35' W 090°43'4 3.5
2015-Apr-16 16:33N 29°36' W 090°39'5 5.2
2015-Apr-16 15:33N 29°34' W 090°33'2 0.1
2015-Apr-15 19:33N 29°34' W 090°31'5 5.4
2015-Apr-15 18:33N 29°35' W 090°37'5 4.8
2015-Apr-15 17:33N 29°37' W 090°42'3 3.2
2015-Apr-15 16:33N 29°34' W 090°43'3 3.2
2015-Apr-15 15:33N 29°32' W 090°46'6 6.1
2015-Apr-15 14:32N 29°33' W 090°54'  
2015-Apr-10 23:33N 29°32' W 090°49'4 4.3
2015-Apr-10 22:33N 29°34' W 090°45'4 3.5
2015-Apr-10 21:33N 29°37' W 090°42'5 4.6
2015-Apr-10 20:34N 29°35' W 090°38'5 4.8
2015-Apr-10 19:29N 29°34' W 090°32'36 1.3
2015-Apr-09 16:25N 29°56' W 089°59'5 6.0
2015-Apr-09 15:33N 29°55' W 090°05'  
Track history (hours):
 
Tides and Currents Weather Stations Pressure Air Temp Water Temp Dewpoint Dewpoint Depression Visibility Wind Speed Wind Dir Waves Ship Positions

Natures Way Challenger

Owner: Natures Way Marine, LLC, Theodore, AL. More information available from US FCC via Universal Licensing System and Coast Guard Vessel Documentation Center.

Last reported at 2015-Apr-16 19:04 UTC. Time now 2015-Apr-18 16:39 UTC.
Position N 29°32' W 090°51'.

Length 14 m.

Type: Towing. MMSI: 367483050.

Date/timePositionNaut miles runAvg speedWind from/ knotsBaromVisibWave heightAir tempDewpointWater temp
2015-Apr-16 19:04N 29°32' W 090°51'3 5.8
2015-Apr-16 18:32N 29°32' W 090°47'4 4.6
2015-Apr-16 17:33N 29°35' W 090°43'4 3.5
2015-Apr-16 16:33N 29°36' W 090°39'5 5.2
2015-Apr-16 15:33N 29°34' W 090°33'2 0.1
2015-Apr-15 19:33N 29°34' W 090°31'5 5.4
2015-Apr-15 18:33N 29°35' W 090°37'5 4.8
2015-Apr-15 17:33N 29°37' W 090°42'3 3.2
2015-Apr-15 16:33N 29°34' W 090°43'3 3.2
2015-Apr-15 15:33N 29°32' W 090°46'6 6.1
2015-Apr-15 14:32N 29°33' W 090°54'  
2015-Apr-10 23:33N 29°32' W 090°49'4 4.3
2015-Apr-10 22:33N 29°34' W 090°45'4 3.5
2015-Apr-10 21:33N 29°37' W 090°42'5 4.6
2015-Apr-10 20:34N 29°35' W 090°38'5 4.8
2015-Apr-10 19:29N 29°34' W 090°32'36 1.3
2015-Apr-09 16:25N 29°56' W 089°59'5 6.0
2015-Apr-09 15:33N 29°55' W 090°05'  

Dump ship's entire track history